Patagonia, Arizona
Current Conditions -  °F | °C
As of 8:54 PM on Wednesday 26 Nov 2014 (Local Time) from KOLS Reporting Station
Clear Clear  
Wind Chill: 45°   Ceiling: Unl
Heat Index: 48°   Visibility: 10mi
Dew Point: 18°   Wind: 6mph
Humidity: 30%   Direction: 90°E
Pressure: 30.26"   Gusts: NA
Location:  31.54°N, 110.76°W
Report Text: KOLS 270354Z AUTO 09005KT 10SM CLR 09/M08 A3026 RMK AO2 SLP225 T00891078
Loading
Personal Weather Stations






























Interactive Weather Map New forecast layout! Learn more

10-Day Weather Forecast

Advertisements
Track Severe Weather on mobile